Time;durP1;ratioP1;P1;durP2;ratioP2;P2;SDS_P1;SDS_P2;PMS_P1;PMS_P2;Temp;Humidity;BMP_temperature;BMP_pressure;BME280_temperature;BME280_humidity;BME280_pressure;Samples;Min_cycle;Max_cycle;Signal;HPM_P1;HPM_P2
2021/04/21 00:00:37;;;;;;;10.60;9.90;;;24.20;94.50;;;;;;3625016;39;20488;-47
2021/04/21 00:03:05;;;;;;;10.73;9.93;;;24.20;94.50;;;;;;3623709;39;20500;-47
2021/04/21 00:05:32;;;;;;;10.90;10.10;;;24.30;94.60;;;;;;3625260;39;20530;-46
2021/04/21 00:08:00;;;;;;;9.93;9.37;;;24.20;94.50;;;;;;3625560;39;20488;-46
2021/04/21 00:10:27;;;;;;;11.00;10.20;;;24.20;94.50;;;;;;3625297;39;20861;-47
2021/04/21 00:12:56;;;;;;;10.77;9.90;;;24.20;94.50;;;;;;3626340;39;20497;-46
2021/04/21 00:15:24;;;;;;;9.83;9.23;;;24.30;94.60;;;;;;3625859;39;20501;-47
2021/04/21 00:17:58;;;;;;;10.30;9.60;;;24.30;94.60;;;;;;3627262;39;20551;-48
2021/04/21 00:20:26;;;;;;;10.63;9.93;;;24.20;94.50;;;;;;3627635;39;20472;-48
2021/04/21 00:22:56;;;;;;;10.77;9.97;;;24.30;94.60;;;;;;3627571;39;20541;-47
2021/04/21 00:25:23;;;;;;;9.87;9.27;;;24.20;94.50;;;;;;3627100;39;20851;-47
2021/04/21 00:27:52;;;;;;;10.40;9.70;;;24.20;94.50;;;;;;3627355;39;20480;-48
2021/04/21 00:30:23;;;;;;;11.10;10.17;;;24.20;94.50;;;;;;3626691;39;20881;-47
2021/04/21 00:32:51;;;;;;;10.57;9.70;;;24.20;94.50;;;;;;3626933;39;20827;-47
2021/04/21 00:35:23;;;;;;;9.97;9.37;;;24.20;94.50;;;;;;3628811;39;20810;-47
2021/04/21 00:37:52;;;;;;;10.00;9.30;;;24.30;94.50;;;;;;3627633;39;20489;-47
2021/04/21 00:40:27;;;;;;;10.17;9.47;;;24.30;94.50;;;;;;3625485;39;20719;-48
2021/04/21 00:43:00;;;;;;;10.23;9.60;;;24.20;94.50;;;;;;3626714;39;20474;-47
2021/04/21 00:45:36;;;;;;;11.00;10.30;;;24.30;94.50;;;;;;3629012;39;20479;-46
2021/04/21 00:48:08;;;;;;;10.07;9.33;;;24.20;94.50;;;;;;3617499;39;20494;-47
2021/04/21 00:50:43;;;;;;;10.57;9.87;;;24.20;94.40;;;;;;3627208;39;20468;-47
2021/04/21 00:53:14;;;;;;;10.83;10.13;;;24.20;94.40;;;;;;3626428;39;20491;-48
2021/04/21 00:55:54;;;;;;;11.40;10.60;;;24.20;94.40;;;;;;3618330;39;20477;-47
2021/04/21 00:58:39;;;;;;;10.33;9.60;;;24.20;94.40;;;;;;3626158;39;20575;-46
2021/04/21 01:01:09;;;;;;;10.17;9.40;;;24.20;94.40;;;;;;3625138;39;20497;-47
2021/04/21 01:03:36;;;;;;;10.27;9.67;;;24.30;94.40;;;;;;3625974;39;20494;-47
2021/04/21 01:06:07;;;;;;;10.80;10.00;;;24.20;94.40;;;;;;3626634;39;20475;-47
2021/04/21 01:08:38;;;;;;;11.37;10.60;;;24.20;94.40;;;;;;3617322;39;20518;-48
2021/04/21 01:11:09;;;;;;;10.53;9.93;;;24.30;94.40;;;;;;3628104;39;20692;-47
2021/04/21 01:13:43;;;;;;;10.80;10.00;;;24.20;94.40;;;;;;3617318;39;20479;-47
2021/04/21 01:16:12;;;;;;;10.60;9.80;;;24.20;94.40;;;;;;3617309;39;20521;-47
2021/04/21 01:18:42;;;;;;;10.67;9.97;;;24.20;94.40;;;;;;3627386;39;20863;-48
2021/04/21 01:21:12;;;;;;;10.30;9.60;;;24.20;94.40;;;;;;3626182;39;20760;-48
2021/04/21 01:24:11;;;;;;;10.43;9.63;;;24.30;94.40;;;;;;3625799;39;20560;-47
2021/04/21 01:26:49;;;;;;;9.80;9.20;;;24.20;94.40;;;;;;3626930;39;20782;-47
2021/04/21 01:29:21;;;;;;;10.13;9.43;;;24.20;94.30;;;;;;3625725;39;20489;-48
2021/04/21 01:31:51;;;;;;;10.43;9.70;;;24.30;94.40;;;;;;3626227;39;20477;-47
2021/04/21 01:34:22;;;;;;;9.77;9.17;;;24.20;94.30;;;;;;3627680;39;20511;-47
2021/04/21 01:36:50;;;;;;;10.63;10.03;;;24.30;94.40;;;;;;3617820;39;20516;-47
2021/04/21 01:39:18;;;;;;;12.90;12.10;;;24.30;94.40;;;;;;3617511;39;20484;-46
2021/04/21 01:41:50;;;;;;;11.83;11.03;;;24.20;94.30;;;;;;3625514;39;20481;-47
2021/04/21 01:44:21;;;;;;;11.17;10.40;;;24.30;94.40;;;;;;3624137;39;20950;-48
2021/04/21 01:46:57;;;;;;;11.40;10.77;;;24.30;94.40;;;;;;3626869;39;20565;-47
2021/04/21 01:49:53;;;;;;;11.30;10.70;;;24.30;94.30;;;;;;3626923;39;20573;-48
2021/04/21 01:52:51;;;;;;;13.37;12.47;;;24.30;94.30;;;;;;3621652;39;20627;-48
2021/04/21 01:55:33;;;;;;;11.37;10.67;;;24.30;94.30;;;;;;3598858;39;20570;-47
2021/04/21 01:58:10;;;;;;;10.10;9.43;;;24.30;94.30;;;;;;3625545;39;20773;-47
2021/04/21 02:00:42;;;;;;;11.53;10.83;;;24.20;94.30;;;;;;3625748;39;20473;-47
2021/04/21 02:03:16;;;;;;;11.23;10.53;;;24.20;94.30;;;;;;3624075;39;20494;-47
2021/04/21 02:06:18;;;;;;;10.70;9.80;;;24.30;94.30;;;;;;3614818;39;20573;-46
2021/04/21 02:09:00;;;;;;;11.73;10.90;;;24.30;94.30;;;;;;3625883;39;20486;-47
2021/04/21 02:11:31;;;;;;;11.43;10.73;;;24.30;94.30;;;;;;3625657;39;20473;-47
2021/04/21 02:14:07;;;;;;;11.40;10.70;;;24.30;94.30;;;;;;3626554;39;20491;-47
2021/04/21 02:16:45;;;;;;;11.30;10.70;;;24.20;94.20;;;;;;3625375;39;20811;-46
2021/04/21 02:19:30;;;;;;;11.37;10.60;;;24.30;94.30;;;;;;3625896;39;20618;-47
2021/04/21 02:22:05;;;;;;;13.00;12.20;;;24.30;94.30;;;;;;3627207;39;20490;-47
2021/04/21 02:24:47;;;;;;;11.33;10.70;;;24.30;94.30;;;;;;3625882;39;20471;-47
2021/04/21 02:27:25;;;;;;;11.60;10.90;;;24.30;94.30;;;;;;3620224;39;20480;-47
2021/04/21 02:29:58;;;;;;;11.70;10.90;;;24.30;94.20;;;;;;3625350;39;20475;-47
2021/04/21 02:32:37;;;;;;;11.93;11.13;;;24.30;94.20;;;;;;3616333;39;20487;-47
2021/04/21 02:35:12;;;;;;;11.77;11.03;;;24.30;94.20;;;;;;3626314;39;20562;-47
2021/04/21 02:37:47;;;;;;;11.67;11.00;;;24.30;94.20;;;;;;3624957;39;20477;-47
2021/04/21 02:40:22;;;;;;;12.20;11.40;;;24.30;94.20;;;;;;3626884;39;20811;-47
2021/04/21 02:42:56;;;;;;;12.60;11.80;;;24.30;94.20;;;;;;3626592;39;20478;-47
2021/04/21 02:45:37;;;;;;;11.90;11.20;;;24.30;94.20;;;;;;3625567;39;20755;-47
2021/04/21 02:48:11;;;;;;;11.97;11.17;;;24.30;94.20;;;;;;3624175;39;20517;-48
2021/04/21 02:50:44;;;;;;;12.50;11.80;;;24.30;94.20;;;;;;3626232;39;20482;-47
2021/04/21 02:53:18;;;;;;;12.23;11.43;;;24.30;94.20;;;;;;3625550;39;20695;-47
2021/04/21 02:56:01;;;;;;;11.97;11.27;;;24.30;94.20;;;;;;3625316;39;20481;-48
2021/04/21 02:58:46;;;;;;;11.83;11.23;;;24.30;94.20;;;;;;3627176;39;20826;-47
2021/04/21 03:01:19;;;;;;;12.80;12.00;;;24.30;94.20;;;;;;3625218;39;20480;-46
2021/04/21 03:03:52;;;;;;;12.30;11.60;;;24.30;94.20;;;;;;3624146;39;20491;-47
2021/04/21 03:06:23;;;;;;;12.67;12.03;;;24.30;94.20;;;;;;3627176;39;20480;-47
2021/04/21 03:08:58;;;;;;;11.73;11.10;;;24.30;94.20;;;;;;3625665;39;20483;-47
2021/04/21 03:11:27;;;;;;;12.30;11.50;;;24.30;94.20;;;;;;3624498;39;20483;-47
2021/04/21 03:14:01;;;;;;;11.93;11.23;;;24.30;94.10;;;;;;3625548;39;20493;-48
2021/04/21 03:16:32;;;;;;;13.13;12.33;;;24.30;94.20;;;;;;3625375;39;20516;-46
2021/04/21 03:19:01;;;;;;;11.90;11.20;;;24.30;94.10;;;;;;3625105;39;20491;-47
2021/04/21 03:21:30;;;;;;;11.60;11.10;;;24.30;94.10;;;;;;3625176;39;20801;-47
2021/04/21 03:24:04;;;;;;;11.03;10.43;;;24.30;94.10;;;;;;3624937;39;20478;-47
2021/04/21 03:26:31;;;;;;;11.40;10.80;;;24.30;94.10;;;;;;3616155;39;20494;-47
2021/04/21 03:29:01;;;;;;;11.47;10.90;;;24.30;94.10;;;;;;3626037;39;20480;-47
2021/04/21 03:31:32;;;;;;;12.77;11.97;;;24.30;94.10;;;;;;3624591;39;20868;-47
2021/04/21 03:34:03;;;;;;;12.60;11.90;;;24.30;94.10;;;;;;3625297;39;20479;-47
2021/04/21 03:36:30;;;;;;;11.67;10.97;;;24.30;94.10;;;;;;3625896;39;20475;-47
2021/04/21 03:38:57;;;;;;;10.40;9.80;;;24.30;94.10;;;;;;3624868;39;20653;-46
2021/04/21 03:41:24;;;;;;;10.90;10.20;;;24.30;94.10;;;;;;3624145;39;20468;-47
2021/04/21 03:43:51;;;;;;;10.70;10.00;;;24.40;94.10;;;;;;3624957;39;20869;-47
2021/04/21 03:46:18;;;;;;;10.30;9.80;;;24.30;94.00;;;;;;3619978;39;20565;-47
2021/04/21 03:48:46;;;;;;;10.70;10.10;;;24.40;94.00;;;;;;3615121;39;20859;-47
2021/04/21 03:51:16;;;;;;;10.93;10.33;;;24.40;94.00;;;;;;3613868;39;21056;-47
2021/04/21 03:53:43;;;;;;;11.17;10.53;;;24.40;94.00;;;;;;3614415;39;20586;-50
2021/04/21 03:56:16;;;;;;;10.23;9.73;;;24.40;94.00;;;;;;3614795;39;20767;-46
2021/04/21 03:58:44;;;;;;;10.80;10.10;;;24.40;94.00;;;;;;3614254;39;20831;-47
2021/04/21 04:01:18;;;;;;;11.73;11.03;;;24.40;93.90;;;;;;3612721;39;20785;-46
2021/04/21 04:03:50;;;;;;;10.90;10.30;;;24.40;93.90;;;;;;3612775;39;20632;-47
2021/04/21 04:06:22;;;;;;;11.87;11.17;;;24.40;93.90;;;;;;3613374;39;20711;-47
2021/04/21 04:08:51;;;;;;;11.43;10.83;;;24.50;93.90;;;;;;3613309;39;20499;-47
2021/04/21 04:11:22;;;;;;;11.50;10.90;;;24.50;94.20;;;;;;3613494;39;20499;-47
2021/04/21 04:13:54;;;;;;;12.70;11.70;;;24.50;93.90;;;;;;3612373;39;20558;-47
2021/04/21 04:16:23;;;;;;;11.53;10.93;;;24.50;93.80;;;;;;3614962;39;20734;-47
2021/04/21 04:18:54;;;;;;;12.70;11.87;;;24.60;93.90;;;;;;3612871;39;20489;-47
2021/04/21 04:21:28;;;;;;;12.00;11.23;;;24.50;93.80;;;;;;3612170;39;20492;-47
2021/04/21 04:23:58;;;;;;;11.80;11.13;;;24.50;93.80;;;;;;3612314;39;20655;-47
2021/04/21 04:26:27;;;;;;;11.03;10.43;;;24.60;93.80;;;;;;3611741;39;20893;-47
2021/04/21 04:28:54;;;;;;;10.70;10.10;;;24.60;93.70;;;;;;3617053;39;20504;-47
2021/04/21 04:31:21;;;;;;;11.40;10.80;;;24.60;93.70;;;;;;3621503;39;20482;-47
2021/04/21 04:33:50;;;;;;;10.80;10.13;;;24.60;93.70;;;;;;3619397;39;20485;-47
2021/04/21 04:36:17;;;;;;;11.57;10.97;;;24.60;93.70;;;;;;3622175;39;20868;-47
2021/04/21 04:38:46;;;;;;;11.37;10.67;;;24.60;93.60;;;;;;3621387;39;20500;-46
2021/04/21 04:41:13;;;;;;;11.77;10.97;;;24.60;93.60;;;;;;3620921;39;20702;-47
2021/04/21 04:43:42;;;;;;;12.50;11.70;;;24.70;93.60;;;;;;3619909;39;20480;-47
2021/04/21 04:46:11;;;;;;;11.80;11.10;;;24.70;93.60;;;;;;3620246;39;20731;-47
2021/04/21 04:48:44;;;;;;;11.23;10.63;;;24.70;93.60;;;;;;3621296;39;20704;-48
2021/04/21 04:51:11;;;;;;;12.47;11.53;;;24.70;93.60;;;;;;3607915;39;20473;-48
2021/04/21 04:53:40;;;;;;;12.60;11.90;;;24.70;93.50;;;;;;3608953;39;20507;-47
2021/04/21 04:56:08;;;;;;;11.57;10.87;;;24.70;93.60;;;;;;3611984;39;20479;-46
2021/04/21 04:58:36;;;;;;;11.03;10.43;;;24.70;93.50;;;;;;3610298;39;20481;-47
2021/04/21 05:01:05;;;;;;;11.90;11.20;;;24.80;93.50;;;;;;3610070;39;20677;-47
2021/04/21 05:03:39;;;;;;;11.33;10.73;;;24.70;93.50;;;;;;3609151;39;20687;-46
2021/04/21 05:06:09;;;;;;;11.40;10.70;;;24.70;93.50;;;;;;3609743;39;20570;-48
2021/04/21 05:08:43;;;;;;;11.17;10.50;;;24.80;93.50;;;;;;3610273;39;20744;-46
2021/04/21 05:11:13;;;;;;;11.53;10.83;;;24.80;93.50;;;;;;3610171;39;20474;-47
2021/04/21 05:13:44;;;;;;;11.93;11.10;;;24.80;93.40;;;;;;3619861;39;20485;-46
2021/04/21 05:16:44;;;;;;;11.20;10.50;;;24.80;93.40;;;;;;3617435;39;20561;-47
2021/04/21 05:20:04;;;;;;;10.60;10.10;;;24.80;93.40;;;;;;3618135;39;20580;-46
2021/04/21 05:23:09;;;;;;;11.40;10.77;;;24.80;93.40;;;;;;3618461;39;20484;-47
2021/04/21 05:26:31;;;;;;;12.20;11.50;;;24.90;93.40;;;;;;3618167;39;20804;-48
2021/04/21 05:29:29;;;;;;;12.00;11.30;;;24.80;93.30;;;;;;3613846;39;20632;-46
2021/04/21 05:32:33;;;;;;;12.33;11.43;;;24.80;93.30;;;;;;3613548;39;20676;-47
2021/04/21 05:35:56;;;;;;;11.77;11.17;;;24.80;93.30;;;;;;3606003;39;20633;-48
2021/04/21 05:39:02;;;;;;;11.67;11.03;;;24.80;93.30;;;;;;3612790;39;20862;-47
2021/04/21 05:42:15;;;;;;;11.40;10.70;;;24.80;93.30;;;;;;3614300;39;20580;-47
2021/04/21 05:45:18;;;;;;;10.80;10.20;;;24.80;93.30;;;;;;3613297;39;20615;-46
2021/04/21 05:48:12;;;;;;;10.10;9.60;;;24.80;93.30;;;;;;3603296;39;20482;-46
2021/04/21 05:51:11;;;;;;;11.57;10.87;;;24.80;93.30;;;;;;3611811;39;20786;-46
2021/04/21 05:54:03;;;;;;;11.10;10.40;;;24.80;93.30;;;;;;3609895;39;20601;-47
2021/04/21 05:56:59;;;;;;;12.20;11.33;;;24.80;93.20;;;;;;3612160;39;20525;-47
2021/04/21 06:00:05;;;;;;;11.23;10.57;;;24.80;93.30;;;;;;3609784;39;20473;-47
2021/04/21 06:02:35;;;;;;;11.50;10.70;;;24.80;93.30;;;;;;3600031;39;20876;-47
2021/04/21 06:05:07;;;;;;;11.53;10.63;;;24.80;93.40;;;;;;3595785;39;20574;-47
2021/04/21 06:07:33;;;;;;;11.90;11.10;;;24.80;93.50;;;;;;3599539;39;20483;-47
2021/04/21 06:10:00;;;;;;;13.83;11.10;;;24.80;93.50;;;;;;3599622;39;20976;-46
2021/04/21 06:12:27;;;;;;;13.43;12.23;;;24.80;93.60;;;;;;3596975;39;20787;-47
2021/04/21 06:14:55;;;;;;;12.63;11.63;;;24.80;93.60;;;;;;3597874;39;20604;-47
2021/04/21 06:17:25;;;;;;;12.27;11.33;;;24.80;93.70;;;;;;3599884;39;20596;-46
2021/04/21 06:19:52;;;;;;;12.67;11.43;;;24.80;93.70;;;;;;3587754;39;20499;-48
2021/04/21 06:22:28;;;;;;;12.43;11.53;;;24.80;93.70;;;;;;3606018;39;20511;-47
2021/04/21 06:25:09;;;;;;;13.80;11.20;;;24.80;93.80;;;;;;3597792;39;20481;-47
2021/04/21 06:27:36;;;;;;;13.13;11.80;;;24.80;93.80;;;;;;3606597;39;20470;-47
2021/04/21 06:30:05;;;;;;;11.17;10.33;;;24.80;93.90;;;;;;3603505;39;20489;-48
2021/04/21 06:32:32;;;;;;;12.20;11.30;;;24.80;93.90;;;;;;3606481;39;20940;-47
2021/04/21 06:35:07;;;;;;;12.43;11.30;;;24.80;93.90;;;;;;3605218;39;20792;-47
2021/04/21 06:37:36;;;;;;;11.97;10.97;;;24.70;94.00;;;;;;3606277;39;20527;-47
2021/04/21 06:40:04;;;;;;;12.50;11.50;;;24.70;94.10;;;;;;3605041;39;20817;-47
2021/04/21 06:42:33;;;;;;;12.80;11.70;;;24.70;94.20;;;;;;3603772;39;20588;-47
2021/04/21 06:45:00;;;;;;;11.77;10.50;;;24.70;94.30;;;;;;3607210;39;20826;-47
2021/04/21 06:47:28;;;;;;;12.63;11.33;;;24.70;94.30;;;;;;3603940;39;20835;-47
2021/04/21 06:49:59;;;;;;;12.53;11.43;;;24.70;94.40;;;;;;3605290;39;20996;-47
2021/04/21 06:52:33;;;;;;;12.97;11.83;;;24.70;94.50;;;;;;3605563;39;20522;-47
2021/04/21 06:55:05;;;;;;;12.57;11.30;;;24.70;94.60;;;;;;3603622;39;20797;-47
2021/04/21 06:57:32;;;;;;;15.70;11.70;;;24.70;94.60;;;;;;3604770;39;20505;-47
2021/04/21 07:00:09;;;;;;;12.30;11.33;;;24.70;94.60;;;;;;3603249;39;20604;-47
2021/04/21 07:02:38;;;;;;;14.87;11.17;;;24.60;94.60;;;;;;3605912;39;20787;-47
2021/04/21 07:05:07;;;;;;;12.63;11.63;;;24.60;94.60;;;;;;3606903;39;20672;-47
2021/04/21 07:07:34;;;;;;;13.23;11.73;;;24.60;94.60;;;;;;3601328;39;20587;-47
2021/04/21 07:10:01;;;;;;;12.50;11.40;;;24.60;94.70;;;;;;3603744;39;20526;-47
2021/04/21 07:12:30;;;;;;;13.07;11.73;;;24.60;94.70;;;;;;3603139;39;20731;-47
2021/04/21 07:14:56;;;;;;;12.37;11.50;;;24.60;94.70;;;;;;3602321;39;20532;-47
2021/04/21 07:17:24;;;;;;;13.70;12.37;;;24.60;94.70;;;;;;3602449;39;20761;-47
2021/04/21 07:19:51;;;;;;;12.13;11.17;;;24.60;94.70;;;;;;3603143;39;20999;-47
2021/04/21 07:22:18;;;;;;;11.93;10.83;;;24.60;94.80;;;;;;3600621;39;20983;-47
2021/04/21 07:24:45;;;;;;;11.70;10.63;;;24.60;94.80;;;;;;3603263;39;20588;-46
2021/04/21 07:27:13;;;;;;;12.83;11.50;;;24.60;94.80;;;;;;3604366;39;20487;-46
2021/04/21 07:29:44;;;;;;;12.27;11.27;;;24.60;94.80;;;;;;3604073;39;20495;-46
2021/04/21 07:32:18;;;;;;;13.70;12.50;;;24.60;94.80;;;;;;3605947;39;20750;-46
2021/04/21 07:34:57;;;;;;;13.53;12.40;;;24.60;94.80;;;;;;3604176;39;20509;-46
2021/04/21 07:37:34;;;;;;;14.13;12.63;;;24.60;94.80;;;;;;3600439;39;20550;-46
2021/04/21 07:40:01;;;;;;;14.43;13.00;;;24.60;94.80;;;;;;3601004;39;20685;-46
2021/04/21 07:42:34;;;;;;;14.53;12.90;;;24.60;94.80;;;;;;3604517;39;20497;-46
2021/04/21 07:45:01;;;;;;;14.77;13.10;;;24.60;94.90;;;;;;3603700;39;20479;-46
2021/04/21 07:47:35;;;;;;;13.93;12.90;;;24.60;94.90;;;;;;3604072;39;20580;-46
2021/04/21 07:50:05;;;;;;;15.53;11.70;;;24.60;94.90;;;;;;3605946;39;20855;-46
2021/04/21 07:52:34;;;;;;;13.13;12.13;;;24.60;94.90;;;;;;3602430;39;20510;-45
2021/04/21 07:55:12;;;;;;;12.80;11.90;;;24.60;95.00;;;;;;3606432;39;20531;-45
2021/04/21 07:57:40;;;;;;;13.77;12.60;;;24.60;95.00;;;;;;3604704;39;20768;-46
2021/04/21 08:00:09;;;;;;;14.50;12.97;;;24.60;95.00;;;;;;3596249;39;20730;-46
2021/04/21 08:02:45;;;;;;;14.10;12.90;;;24.60;95.00;;;;;;3596191;39;20480;-46
2021/04/21 08:05:14;;;;;;;12.27;11.30;;;24.60;95.00;;;;;;3592229;39;21077;-46
2021/04/21 08:07:42;;;;;;;13.97;12.87;;;24.50;95.00;;;;;;3593195;39;20550;-46
2021/04/21 08:10:21;;;;;;;12.60;11.53;;;24.60;95.00;;;;;;3592894;39;20744;-46
2021/04/21 08:12:47;;;;;;;13.07;11.80;;;24.60;95.00;;;;;;3593856;39;20793;-46
2021/04/21 08:15:15;;;;;;;13.33;12.33;;;24.60;95.00;;;;;;3593821;39;20923;-46
2021/04/21 08:17:53;;;;;;;13.83;12.03;;;24.50;94.90;;;;;;3592048;39;20518;-46
2021/04/21 08:20:27;;;;;;;16.40;11.77;;;24.50;94.90;;;;;;3590203;39;20613;-46
2021/04/21 08:22:55;;;;;;;13.37;12.00;;;24.60;95.00;;;;;;3593205;39;20908;-46
2021/04/21 08:25:21;;;;;;;12.97;12.07;;;24.50;94.90;;;;;;3606824;39;20641;-46
2021/04/21 08:27:48;;;;;;;14.93;13.50;;;24.50;94.90;;;;;;3605927;39;20680;-45
2021/04/21 08:30:16;;;;;;;13.20;11.83;;;24.50;94.90;;;;;;3605316;39;21066;-46
2021/04/21 08:32:42;;;;;;;13.70;12.40;;;24.50;94.90;;;;;;3607110;39;20499;-46
2021/04/21 08:35:10;;;;;;;13.87;12.60;;;24.50;94.90;;;;;;3607632;39;20501;-45
2021/04/21 08:37:38;;;;;;;13.97;12.63;;;24.50;94.80;;;;;;3607645;39;20540;-46
2021/04/21 08:40:06;;;;;;;14.47;11.97;;;24.50;94.90;;;;;;3606421;39;21042;-45
2021/04/21 08:42:34;;;;;;;14.13;11.73;;;24.50;94.80;;;;;;3594302;39;20486;-46
2021/04/21 08:45:01;;;;;;;12.80;11.90;;;24.50;94.80;;;;;;3604945;39;20644;-46
2021/04/21 08:47:28;;;;;;;12.90;11.90;;;24.40;94.80;;;;;;3603041;39;20594;-46
2021/04/21 08:49:55;;;;;;;13.67;12.43;;;24.40;94.80;;;;;;3604779;39;20501;-46
2021/04/21 08:52:25;;;;;;;13.93;12.60;;;24.40;94.80;;;;;;3605037;39;20684;-46
2021/04/21 08:54:55;;;;;;;17.50;13.20;;;24.40;94.80;;;;;;3606009;39;20509;-46
2021/04/21 08:57:22;;;;;;;12.77;11.73;;;24.40;94.80;;;;;;3607619;39;21137;-46
2021/04/21 08:59:49;;;;;;;13.00;12.00;;;24.40;94.80;;;;;;3603655;39;21071;-46
2021/04/21 09:02:17;;;;;;;13.60;12.60;;;24.40;94.80;;;;;;3603687;39;20526;-46
2021/04/21 09:04:44;;;;;;;13.57;12.40;;;24.40;94.90;;;;;;3602798;39;20878;-46
2021/04/21 09:07:11;;;;;;;13.57;12.40;;;24.40;94.90;;;;;;3606597;39;20573;-46
2021/04/21 09:09:38;;;;;;;13.50;12.40;;;24.40;95.20;;;;;;3604561;39;20781;-46
2021/04/21 09:12:08;;;;;;;13.83;12.73;;;24.40;94.90;;;;;;3604410;39;20780;-46
2021/04/21 09:14:35;;;;;;;13.90;12.60;;;24.30;94.90;;;;;;3604224;39;20521;-46
2021/04/21 09:17:02;;;;;;;13.00;11.90;;;24.30;95.00;;;;;;3603545;39;20770;-45
2021/04/21 09:19:29;;;;;;;13.23;12.27;;;24.30;95.00;;;;;;3593487;39;20666;-45
2021/04/21 09:22:11;;;;;;;13.50;12.37;;;24.30;95.10;;;;;;3605544;39;20496;-46
2021/04/21 09:24:38;;;;;;;13.53;12.43;;;24.30;95.10;;;;;;3603985;39;20623;-46
2021/04/21 09:27:26;;;;;;;13.43;12.33;;;24.30;95.10;;;;;;3603243;39;20498;-46
2021/04/21 09:30:11;;;;;;;13.03;12.13;;;24.30;95.20;;;;;;3603392;39;20865;-46
2021/04/21 09:32:45;;;;;;;13.30;12.27;;;24.30;95.20;;;;;;3604710;39;20846;-46
2021/04/21 09:35:16;;;;;;;12.93;11.93;;;24.30;95.20;;;;;;3603843;39;20512;-46
2021/04/21 09:37:42;;;;;;;12.30;11.50;;;24.30;95.20;;;;;;3596481;39;20605;-47
2021/04/21 09:40:11;;;;;;;12.10;10.90;;;24.30;95.20;;;;;;3596778;39;20469;-46
2021/04/21 09:42:40;;;;;;;13.07;11.97;;;24.30;95.20;;;;;;3605712;39;20484;-47
2021/04/21 09:45:09;;;;;;;13.17;12.17;;;24.30;95.20;;;;;;3607337;39;20476;-46
2021/04/21 09:47:36;;;;;;;13.53;12.20;;;24.30;95.20;;;;;;3608761;39;20743;-46
2021/04/21 09:50:03;;;;;;;13.43;12.43;;;24.30;95.20;;;;;;3600239;39;20578;-46
2021/04/21 09:52:31;;;;;;;12.90;11.90;;;24.30;95.30;;;;;;3581992;39;20702;-46
2021/04/21 09:55:14;;;;;;;12.83;11.83;;;24.30;95.30;;;;;;3595464;39;20484;-46
2021/04/21 09:57:47;;;;;;;12.40;11.50;;;24.30;95.30;;;;;;3602600;39;20605;-46
2021/04/21 10:00:20;;;;;;;13.40;12.20;;;24.20;95.20;;;;;;3604140;39;20941;-46
2021/04/21 10:02:46;;;;;;;13.30;12.10;;;24.30;95.30;;;;;;3595121;39;20829;-46
2021/04/21 10:05:25;;;;;;;13.23;11.97;;;24.20;95.30;;;;;;3592324;39;20593;-46
2021/04/21 10:08:21;;;;;;;12.47;11.57;;;24.30;95.30;;;;;;3603640;39;20695;-45
2021/04/21 10:11:00;;;;;;;12.67;11.50;;;24.20;95.30;;;;;;3580601;39;20733;-46
2021/04/21 10:13:41;;;;;;;13.90;12.73;;;24.30;95.30;;;;;;3605760;39;21091;-46
2021/04/21 10:16:08;;;;;;;15.27;12.00;;;24.20;95.30;;;;;;3603958;39;20614;-45
2021/04/21 10:18:35;;;;;;;12.80;11.70;;;24.20;95.30;;;;;;3601905;39;21061;-46
2021/04/21 10:21:03;;;;;;;11.57;10.70;;;24.20;95.30;;;;;;3603043;39;20839;-46
2021/04/21 10:23:30;;;;;;;12.00;10.63;;;24.20;95.30;;;;;;3604045;39;20754;-46
2021/04/21 10:26:01;;;;;;;12.77;11.60;;;24.20;95.30;;;;;;3604153;39;20493;-46
2021/04/21 10:28:29;;;;;;;13.03;11.93;;;24.20;95.20;;;;;;3604916;39;20708;-46
2021/04/21 10:30:56;;;;;;;12.47;11.47;;;24.30;95.30;;;;;;3603035;39;20472;-46
2021/04/21 10:33:26;;;;;;;13.50;11.73;;;24.30;95.20;;;;;;3604234;39;20760;-45
2021/04/21 10:35:54;;;;;;;12.97;11.87;;;24.30;95.30;;;;;;3603523;39;20732;-46
2021/04/21 10:38:23;;;;;;;12.77;11.63;;;24.20;95.20;;;;;;3593360;39;20735;-46
2021/04/21 10:40:50;;;;;;;13.03;11.90;;;24.30;95.30;;;;;;3603395;39;20741;-46
2021/04/21 10:43:39;;;;;;;12.80;11.80;;;24.20;95.30;;;;;;3606025;39;20918;-47
2021/04/21 10:46:05;;;;;;;13.17;12.07;;;24.20;95.30;;;;;;3604224;39;20578;-46
2021/04/21 10:48:39;;;;;;;12.60;11.70;;;24.20;95.30;;;;;;3607361;39;20493;-46
2021/04/21 10:51:33;;;;;;;12.67;11.37;;;24.20;95.30;;;;;;3603446;39;20515;-46
2021/04/21 10:54:01;;;;;;;12.80;11.80;;;24.20;95.30;;;;;;3605471;39;20480;-45
2021/04/21 10:56:28;;;;;;;12.93;11.93;;;24.20;95.30;;;;;;3605923;39;20723;-46
2021/04/21 10:58:58;;;;;;;12.70;11.80;;;24.20;95.30;;;;;;3603202;39;21084;-45
2021/04/21 11:01:29;;;;;;;12.97;11.87;;;24.20;95.30;;;;;;3606992;39;20742;-46
2021/04/21 11:03:56;;;;;;;12.27;11.30;;;24.20;95.30;;;;;;3605091;39;21100;-46
2021/04/21 11:06:48;;;;;;;13.93;12.83;;;24.20;95.30;;;;;;3607575;39;20460;-46
2021/04/21 11:09:16;;;;;;;13.50;12.20;;;24.20;95.40;;;;;;3606267;39;20790;-46
2021/04/21 11:11:46;;;;;;;13.47;12.17;;;24.30;95.40;;;;;;3607248;39;20533;-46
2021/04/21 11:14:37;;;;;;;13.17;11.83;;;24.20;95.30;;;;;;3602754;39;20584;-46
2021/04/21 11:17:06;;;;;;;12.23;11.43;;;24.20;95.30;;;;;;3596184;39;20500;-46
2021/04/21 11:19:40;;;;;;;13.10;12.00;;;24.20;95.30;;;;;;3595678;39;20509;-45
2021/04/21 11:22:18;;;;;;;12.63;11.53;;;24.20;95.30;;;;;;3597031;39;20867;-46
2021/04/21 11:25:17;;;;;;;13.13;12.03;;;24.20;95.30;;;;;;3598943;39;20504;-46
2021/04/21 11:27:44;;;;;;;12.40;11.37;;;24.20;95.30;;;;;;3594649;39;20539;-46
2021/04/21 11:30:51;;;;;;;13.40;12.10;;;24.20;95.30;;;;;;3595077;39;20735;-46
2021/04/21 11:33:55;;;;;;;12.17;11.30;;;24.30;95.40;;;;;;3597337;39;20769;-46
2021/04/21 11:36:53;;;;;;;12.93;11.90;;;24.20;95.30;;;;;;3596889;39;20725;-47
2021/04/21 11:40:02;;;;;;;11.80;10.90;;;24.20;95.40;;;;;;3594733;39;21151;-46
2021/04/21 11:42:40;;;;;;;13.10;11.90;;;24.20;95.30;;;;;;3595701;39;20517;-46
2021/04/21 11:45:25;;;;;;;12.40;11.30;;;24.30;95.40;;;;;;3595692;39;21168;-46
2021/04/21 11:47:54;;;;;;;13.20;12.00;;;24.20;95.40;;;;;;3597886;39;20478;-46
2021/04/21 11:50:27;;;;;;;13.67;12.50;;;24.20;95.40;;;;;;3593076;39;20491;-47
2021/04/21 11:53:12;;;;;;;13.53;12.33;;;24.20;95.40;;;;;;3593967;39;20489;-46
2021/04/21 11:55:40;;;;;;;12.20;11.30;;;24.20;95.40;;;;;;3584876;39;20496;-46
2021/04/21 11:58:09;;;;;;;11.97;10.70;;;24.20;95.50;;;;;;3597309;39;20579;-46
2021/04/21 12:00:39;;;;;;;11.77;10.80;;;24.20;95.50;;;;;;3595202;39;20506;-46
2021/04/21 12:03:13;;;;;;;11.90;11.10;;;24.20;95.50;;;;;;3595472;39;20714;-46
2021/04/21 12:05:40;;;;;;;12.37;11.37;;;24.20;95.50;;;;;;3594514;39;20504;-46
2021/04/21 12:08:09;;;;;;;11.60;10.70;;;24.20;95.50;;;;;;3595288;39;20500;-46
2021/04/21 12:10:43;;;;;;;12.40;11.33;;;24.20;95.50;;;;;;3595540;39;20898;-46
2021/04/21 12:13:18;;;;;;;12.37;11.50;;;24.20;95.50;;;;;;3597809;39;20878;-46
2021/04/21 12:15:46;;;;;;;11.97;10.87;;;24.20;95.50;;;;;;3597020;39;21027;-46
2021/04/21 12:18:22;;;;;;;12.73;11.73;;;24.20;95.50;;;;;;3594989;39;20853;-46
2021/04/21 12:20:49;;;;;;;13.03;12.03;;;24.20;95.50;;;;;;3598097;39;20728;-46
2021/04/21 12:23:26;;;;;;;12.80;11.70;;;24.20;95.50;;;;;;3597814;39;20524;-46
2021/04/21 12:25:53;;;;;;;11.50;10.80;;;24.20;95.50;;;;;;3598770;39;21325;-46
2021/04/21 12:28:20;;;;;;;12.13;11.13;;;24.20;95.50;;;;;;3602558;39;20742;-47
2021/04/21 12:30:53;;;;;;;11.60;10.80;;;24.20;95.50;;;;;;3606857;39;20792;-46
2021/04/21 12:33:21;;;;;;;13.00;12.00;;;24.20;95.50;;;;;;3608900;39;20730;-46
2021/04/21 12:35:51;;;;;;;12.33;11.20;;;24.20;95.50;;;;;;3607399;39;20568;-46
2021/04/21 12:38:30;;;;;;;11.83;11.00;;;24.20;95.50;;;;;;3607966;39;20472;-46
2021/04/21 12:40:58;;;;;;;12.83;11.57;;;24.20;95.50;;;;;;3608414;39;20897;-46
2021/04/21 12:43:30;;;;;;;12.50;11.30;;;24.20;95.50;;;;;;3609783;39;20491;-46
2021/04/21 12:46:14;;;;;;;12.37;11.37;;;24.20;95.50;;;;;;3608911;39;20479;-47
2021/04/21 12:48:50;;;;;;;12.70;11.40;;;24.20;95.60;;;;;;3609527;39;20489;-46
2021/04/21 12:51:22;;;;;;;11.83;10.93;;;24.20;95.60;;;;;;3607628;39;20493;-46
2021/04/21 12:53:51;;;;;;;12.87;11.70;;;24.20;95.60;;;;;;3607485;39;20728;-46
2021/04/21 12:56:18;;;;;;;10.70;9.83;;;24.20;95.60;;;;;;3607426;39;20752;-46
2021/04/21 12:58:46;;;;;;;11.43;10.53;;;24.20;95.60;;;;;;3607286;39;20503;-46
2021/04/21 13:01:16;;;;;;;12.37;11.27;;;24.20;95.60;;;;;;3590187;39;20488;-46